Time;durP1;ratioP1;P1;durP2;ratioP2;P2;SDS_P1;SDS_P2;PMS_P1;PMS_P2;Temp;Humidity;BMP_temperature;BMP_pressure;BME280_temperature;BME280_humidity;BME280_pressure;Samples;Min_cycle;Max_cycle;Signal;HPM_P1;HPM_P2
2021/06/04 00:01:19;;;;;;;6.70;5.50;;;19.90;77.00;;;;;;5097092;28;20187;-80
2021/06/04 00:03:44;;;;;;;7.03;6.00;;;19.90;76.50;;;;;;5096570;28;20460;-80
2021/06/04 00:06:11;;;;;;;8.13;6.50;;;19.70;76.90;;;;;;5096806;28;20501;-81
2021/06/04 00:08:37;;;;;;;8.93;6.77;;;19.80;77.40;;;;;;5097172;28;20178;-81
2021/06/04 00:11:04;;;;;;;7.93;7.13;;;19.80;77.60;;;;;;5095846;28;20447;-80
2021/06/04 00:13:43;;;;;;;8.20;7.10;;;19.80;78.50;;;;;;5094156;28;20192;-80
2021/06/04 00:16:23;;;;;;;8.27;6.57;;;19.80;78.30;;;;;;5093897;28;20453;-80
2021/06/04 00:18:50;;;;;;;6.40;5.80;;;19.80;78.60;;;;;;5094864;28;20442;-80
2021/06/04 00:21:23;;;;;;;8.23;6.50;;;19.60;78.60;;;;;;5094880;28;20406;-80
2021/06/04 00:23:49;;;;;;;6.60;5.87;;;19.60;78.70;;;;;;5078603;28;20457;-80
2021/06/04 00:26:16;;;;;;;7.80;5.90;;;19.60;79.20;;;;;;5096348;28;20472;-80
2021/06/04 00:28:42;;;;;;;6.40;5.60;;;19.50;79.60;;;;;;5096762;28;20203;-80
2021/06/04 00:31:08;;;;;;;13.80;6.20;;;19.50;80.40;;;;;;5094687;28;20416;-81
2021/06/04 00:33:35;;;;;;;6.83;5.90;;;19.60;81.50;;;;;;5092569;28;20497;-80
2021/06/04 00:36:03;;;;;;;6.83;5.40;;;19.60;80.80;;;;;;5096673;28;20489;-80
2021/06/04 00:38:29;;;;;;;6.57;5.90;;;19.60;80.30;;;;;;5096983;28;20443;-81
2021/06/04 00:40:59;;;;;;;6.90;6.20;;;19.50;81.00;;;;;;5098153;28;20414;-80
2021/06/04 00:43:25;;;;;;;6.90;5.83;;;19.50;80.70;;;;;;5096405;28;20293;-79
2021/06/04 00:45:54;;;;;;;12.23;6.53;;;19.50;80.70;;;;;;5096865;28;20429;-80
2021/06/04 00:48:20;;;;;;;8.43;6.20;;;19.50;81.30;;;;;;5098125;28;20587;-81
2021/06/04 00:51:02;;;;;;;6.90;5.80;;;19.50;81.70;;;;;;5100414;28;20409;-81
2021/06/04 00:53:27;;;;;;;7.50;6.20;;;19.30;82.00;;;;;;5081109;28;20435;-79
2021/06/04 00:55:54;;;;;;;8.90;6.37;;;19.30;83.20;;;;;;5098315;28;20405;-80
2021/06/04 00:58:24;;;;;;;7.03;5.90;;;19.30;83.30;;;;;;5099357;28;20203;-80
2021/06/04 01:00:52;;;;;;;6.93;6.23;;;19.20;83.40;;;;;;5099662;28;20509;-80
2021/06/04 01:03:22;;;;;;;6.57;5.50;;;19.20;84.40;;;;;;5099061;28;20544;-81
2021/06/04 01:05:48;;;;;;;6.93;5.97;;;19.10;83.60;;;;;;5101387;28;20433;-80
2021/06/04 01:08:43;;;;;;;9.20;6.60;;;19.20;84.40;;;;;;5085998;28;20443;-81
2021/06/04 01:11:28;;;;;;;7.53;6.73;;;19.20;84.90;;;;;;5103044;28;20812;-81
2021/06/04 01:14:15;;;;;;;6.50;5.57;;;19.10;85.50;;;;;;5102211;28;20413;-79
2021/06/04 01:17:03;;;;;;;6.77;5.90;;;19.20;85.50;;;;;;5098294;28;20516;-80
2021/06/04 01:19:43;;;;;;;6.17;5.57;;;19.20;85.80;;;;;;5097882;28;20421;-80
2021/06/04 01:22:20;;;;;;;7.87;6.80;;;19.30;85.60;;;;;;5099077;28;20453;-81
2021/06/04 01:24:52;;;;;;;8.97;6.10;;;19.30;85.70;;;;;;5103161;28;20479;-81
2021/06/04 01:27:45;;;;;;;12.60;6.23;;;19.40;85.60;;;;;;5102720;28;20440;-81
2021/06/04 01:30:21;;;;;;;6.70;5.83;;;19.40;85.90;;;;;;5099507;28;20482;-81
2021/06/04 01:32:49;;;;;;;7.30;6.30;;;19.40;85.80;;;;;;5099861;28;20429;-80
2021/06/04 01:35:28;;;;;;;6.60;5.90;;;19.40;86.10;;;;;;5102197;28;20410;-81
2021/06/04 01:37:56;;;;;;;10.20;6.57;;;19.30;85.50;;;;;;5102824;28;20967;-80
2021/06/04 01:40:33;;;;;;;7.07;6.17;;;19.20;86.10;;;;;;5098583;28;20412;-80
2021/06/04 01:43:06;;;;;;;7.47;6.63;;;19.10;86.10;;;;;;5094283;28;20796;-80
2021/06/04 01:45:36;;;;;;;8.80;6.27;;;19.10;87.30;;;;;;5094880;28;20888;-80
2021/06/04 01:48:16;;;;;;;9.73;6.47;;;19.10;88.00;;;;;;5078506;28;20425;-80
2021/06/04 01:51:05;;;;;;;9.87;6.87;;;19.10;88.30;;;;;;5096428;28;20409;-80
2021/06/04 01:53:39;;;;;;;6.93;6.23;;;19.10;87.70;;;;;;5095205;28;20505;-80
2021/06/04 01:56:10;;;;;;;8.90;5.53;;;19.10;88.30;;;;;;5079939;28;20478;-80
2021/06/04 01:58:50;;;;;;;7.03;5.57;;;19.00;88.50;;;;;;5079942;28;20413;-80
2021/06/04 02:01:20;;;;;;;7.20;6.50;;;19.00;88.30;;;;;;5062807;28;20428;-80
2021/06/04 02:03:47;;;;;;;8.80;6.07;;;18.80;88.70;;;;;;5097561;28;20510;-80
2021/06/04 02:06:13;;;;;;;7.83;6.67;;;19.00;89.70;;;;;;5096620;28;20425;-80
2021/06/04 02:08:49;;;;;;;7.37;5.80;;;19.00;89.50;;;;;;5096057;28;20431;-79
2021/06/04 02:11:19;;;;;;;8.10;6.17;;;19.00;89.00;;;;;;5095664;28;20213;-79
2021/06/04 02:13:47;;;;;;;7.30;6.37;;;18.90;89.80;;;;;;5095087;28;20424;-80
2021/06/04 02:16:25;;;;;;;7.30;6.00;;;18.80;90.20;;;;;;5095755;28;20776;-80
2021/06/04 02:18:57;;;;;;;7.00;6.30;;;18.90;90.10;;;;;;5096901;28;20433;-80
2021/06/04 02:21:30;;;;;;;8.77;6.57;;;18.90;89.90;;;;;;5095517;28;20933;-80
2021/06/04 02:24:17;;;;;;;17.47;7.40;;;18.80;90.00;;;;;;5096866;28;20498;-80
2021/06/04 02:26:51;;;;;;;6.93;6.23;;;18.80;90.10;;;;;;5095620;28;20439;-80
2021/06/04 02:29:41;;;;;;;9.70;6.17;;;18.70;90.20;;;;;;5095435;28;20407;-81
2021/06/04 02:32:22;;;;;;;6.13;5.47;;;18.70;90.40;;;;;;5095466;28;20444;-80
2021/06/04 02:35:12;;;;;;;6.10;5.50;;;18.70;90.40;;;;;;5095997;28;20418;-81
2021/06/04 02:37:44;;;;;;;8.93;6.50;;;18.70;90.40;;;;;;5094164;28;20986;-80
2021/06/04 02:40:26;;;;;;;7.17;5.53;;;18.70;90.30;;;;;;5095980;28;20485;-79
2021/06/04 02:43:13;;;;;;;7.50;6.80;;;18.60;90.00;;;;;;5093524;28;20456;-79
2021/06/04 02:45:49;;;;;;;7.87;7.07;;;18.60;90.60;;;;;;5093575;28;20673;-80
2021/06/04 02:48:20;;;;;;;8.63;6.43;;;18.30;91.00;;;;;;5095290;28;20416;-80
2021/06/04 02:51:08;;;;;;;8.23;6.60;;;18.30;91.30;;;;;;5093637;28;20465;-80
2021/06/04 02:53:39;;;;;;;8.97;6.73;;;18.40;91.30;;;;;;5094445;28;20477;-80
2021/06/04 02:56:46;;;;;;;7.87;6.50;;;18.50;91.20;;;;;;5095581;28;20453;-80
2021/06/04 02:59:14;;;;;;;6.70;6.00;;;18.50;91.10;;;;;;5015698;28;20429;-80
2021/06/04 03:01:45;;;;;;;6.60;5.93;;;18.60;91.10;;;;;;5085087;28;20440;-80
2021/06/04 03:04:14;;;;;;;14.00;7.13;;;18.60;90.60;;;;;;5092877;28;20971;-80
2021/06/04 03:06:44;;;;;;;6.73;6.13;;;18.60;91.00;;;;;;5103726;28;20409;-80
2021/06/04 03:09:13;;;;;;;6.30;5.77;;;18.60;90.90;;;;;;5094412;28;20425;-80
2021/06/04 03:11:42;;;;;;;7.97;6.77;;;18.60;91.20;;;;;;5096478;28;20504;-79
2021/06/04 03:14:08;;;;;;;8.20;7.00;;;18.60;91.10;;;;;;5096717;28;20424;-80
2021/06/04 03:16:35;;;;;;;7.67;6.87;;;18.40;91.30;;;;;;5095648;28;20480;-80
2021/06/04 03:19:06;;;;;;;6.80;6.13;;;18.00;91.90;;;;;;5097154;28;20405;-80
2021/06/04 03:21:39;;;;;;;9.73;6.70;;;18.00;92.30;;;;;;5096176;28;20487;-80
2021/06/04 03:24:10;;;;;;;10.10;7.17;;;18.20;92.70;;;;;;5095416;28;20451;-80
2021/06/04 03:26:37;;;;;;;12.43;7.07;;;18.30;92.30;;;;;;5095585;28;20416;-79
2021/06/04 03:29:06;;;;;;;7.33;6.07;;;18.30;92.10;;;;;;5094715;28;20507;-78
2021/06/04 03:31:35;;;;;;;8.20;6.73;;;18.40;92.60;;;;;;5092505;28;20489;-79
2021/06/04 03:34:02;;;;;;;7.97;6.30;;;18.50;92.40;;;;;;5094010;28;20425;-80
2021/06/04 03:36:32;;;;;;;6.53;5.90;;;18.60;92.00;;;;;;5094275;28;20427;-79
2021/06/04 03:38:57;;;;;;;9.47;6.10;;;18.50;92.10;;;;;;5092411;28;20788;-79
2021/06/04 03:41:29;;;;;;;13.33;6.53;;;18.50;92.40;;;;;;5093677;28;20419;-79
2021/06/04 03:43:55;;;;;;;7.63;5.83;;;18.30;92.50;;;;;;5093619;28;20676;-79
2021/06/04 03:46:21;;;;;;;6.50;5.90;;;18.20;93.00;;;;;;5095903;28;20462;-80
2021/06/04 03:48:47;;;;;;;8.30;6.67;;;18.20;92.80;;;;;;5078383;28;20416;-81
2021/06/04 03:51:22;;;;;;;8.03;5.90;;;18.20;92.70;;;;;;5097605;28;20199;-81
2021/06/04 03:53:48;;;;;;;12.10;6.63;;;18.00;93.30;;;;;;5098583;28;20198;-81
2021/06/04 03:56:15;;;;;;;9.57;7.07;;;18.00;93.70;;;;;;5094656;28;20764;-80
2021/06/04 03:58:42;;;;;;;8.10;6.77;;;18.20;93.80;;;;;;5094928;28;20423;-80
2021/06/04 04:01:21;;;;;;;6.23;5.60;;;18.30;93.70;;;;;;5095312;28;20465;-80
2021/06/04 04:03:47;;;;;;;7.77;6.60;;;18.30;93.90;;;;;;5094471;28;20505;-80
2021/06/04 04:06:13;;;;;;;9.53;6.67;;;18.30;93.60;;;;;;5094102;28;20490;-79
2021/06/04 04:08:38;;;;;;;6.97;6.27;;;18.40;94.00;;;;;;5094933;28;20201;-80
2021/06/04 04:11:04;;;;;;;10.90;7.13;;;18.50;93.90;;;;;;5099630;28;20205;-80
2021/06/04 04:13:30;;;;;;;12.30;6.93;;;18.50;93.90;;;;;;5098772;28;20197;-80
2021/06/04 04:15:57;;;;;;;9.60;7.40;;;18.50;94.10;;;;;;5099120;28;20435;-80
2021/06/04 04:18:24;;;;;;;7.03;6.30;;;18.60;94.20;;;;;;5100633;28;20224;-81
2021/06/04 04:20:56;;;;;;;16.57;7.07;;;18.60;94.30;;;;;;5090054;28;20426;-80
2021/06/04 04:23:36;;;;;;;6.40;5.63;;;18.70;94.60;;;;;;5067238;28;20470;-81
2021/06/04 04:26:05;;;;;;;9.53;6.93;;;18.70;94.70;;;;;;5071506;28;20506;-80
2021/06/04 04:28:34;;;;;;;9.00;7.03;;;18.70;95.00;;;;;;5079080;28;20766;-80
2021/06/04 04:31:03;;;;;;;10.23;6.80;;;18.70;95.80;;;;;;5059461;28;20444;-82
2021/06/04 04:33:29;;;;;;;12.27;7.80;;;18.70;96.50;;;;;;5055573;28;20471;-79
2021/06/04 04:35:56;;;;;;;7.50;6.40;;;18.80;97.40;;;;;;5058487;28;20479;-80
2021/06/04 04:38:22;;;;;;;9.63;6.83;;;18.80;97.50;;;;;;5068841;28;20432;-81
2021/06/04 04:40:58;;;;;;;9.43;7.77;;;18.70;96.10;;;;;;5076046;28;20433;-80
2021/06/04 04:43:25;;;;;;;7.80;6.70;;;18.70;96.00;;;;;;5075253;28;20266;-79
2021/06/04 04:45:51;;;;;;;7.13;6.43;;;18.70;96.30;;;;;;5076561;28;20527;-79
2021/06/04 04:48:16;;;;;;;6.93;6.23;;;18.70;95.80;;;;;;5076627;28;20878;-79
2021/06/04 04:50:42;;;;;;;9.90;6.77;;;18.70;96.00;;;;;;5076731;28;20409;-79
2021/06/04 04:53:08;;;;;;;15.97;6.50;;;18.60;96.00;;;;;;5076707;28;20203;-79
2021/06/04 04:55:36;;;;;;;7.30;6.10;;;18.60;96.50;;;;;;5066344;28;20225;-79
2021/06/04 04:58:03;;;;;;;8.43;6.50;;;18.60;96.40;;;;;;5056911;28;20270;-80
2021/06/04 05:00:29;;;;;;;11.60;6.67;;;18.60;96.50;;;;;;5056653;28;20427;-79
2021/06/04 05:02:57;;;;;;;10.13;6.37;;;18.50;96.10;;;;;;5055145;28;20536;-80
2021/06/04 05:05:24;;;;;;;8.83;6.47;;;18.60;96.60;;;;;;5058210;28;20414;-80
2021/06/04 05:07:50;;;;;;;8.73;7.17;;;18.50;96.70;;;;;;5057116;28;20420;-79
2021/06/04 05:10:15;;;;;;;12.60;7.80;;;18.50;96.80;;;;;;5057182;28;20879;-79
2021/06/04 05:12:41;;;;;;;15.03;7.20;;;18.50;97.10;;;;;;5056393;28;20201;-79
2021/06/04 05:15:13;;;;;;;8.57;6.43;;;18.60;97.50;;;;;;5056293;28;20270;-81
2021/06/04 05:17:38;;;;;;;7.80;7.00;;;18.60;96.60;;;;;;5073731;28;20582;-81
2021/06/04 05:20:04;;;;;;;7.23;6.10;;;18.70;97.00;;;;;;5075273;28;20437;-80
2021/06/04 05:22:30;;;;;;;7.07;5.70;;;18.70;96.70;;;;;;5074546;28;20195;-80
2021/06/04 05:24:56;;;;;;;7.77;6.60;;;18.70;96.90;;;;;;5066342;28;20448;-79
2021/06/04 05:27:21;;;;;;;8.60;6.03;;;18.80;97.00;;;;;;5066455;28;20195;-79
2021/06/04 05:29:50;;;;;;;7.57;6.70;;;18.80;97.30;;;;;;5079264;28;20186;-79
2021/06/04 05:32:25;;;;;;;8.60;6.87;;;18.80;98.60;;;;;;5061751;28;20206;-80
2021/06/04 05:34:51;;;;;;;7.27;6.33;;;18.70;99.90;;;;;;5069542;28;21384;-78
2021/06/04 05:37:17;;;;;;;11.07;7.57;;;18.60;99.90;;;;;;5071875;28;20440;-80
2021/06/04 05:39:45;;;;;;;9.50;7.47;;;18.60;99.90;;;;;;5074933;28;20199;-79
2021/06/04 05:42:11;;;;;;;8.80;6.87;;;18.50;99.90;;;;;;5039096;28;20531;-80
2021/06/04 05:44:38;;;;;;;9.10;7.50;;;18.50;99.90;;;;;;5055905;28;20493;-80
2021/06/04 05:47:10;;;;;;;8.83;7.37;;;18.40;99.90;;;;;;5059859;28;20176;-80
2021/06/04 05:49:36;;;;;;;9.23;7.53;;;18.40;99.90;;;;;;5068888;28;20780;-81
2021/06/04 05:52:08;;;;;;;9.80;7.27;;;18.20;99.90;;;;;;5053263;28;20469;-79
2021/06/04 05:54:36;;;;;;;10.73;7.60;;;18.10;99.90;;;;;;5057175;28;20183;-78
2021/06/04 05:57:02;;;;;;;9.90;7.67;;;18.10;99.90;;;;;;5063458;28;20432;-78
2021/06/04 05:59:28;;;;;;;12.10;8.27;;;18.00;99.90;;;;;;5065725;28;20472;-78
2021/06/04 06:01:53;;;;;;;10.23;7.50;;;17.50;99.90;;;;;;5059523;28;20532;-78
2021/06/04 06:04:20;;;;;;;12.60;8.03;;;17.10;99.90;;;;;;5060376;28;20295;-78
2021/06/04 06:06:45;;;;;;;10.50;7.97;;;16.90;99.90;;;;;;5060679;28;20184;-78
2021/06/04 06:09:11;;;;;;;9.43;8.20;;;17.10;99.90;;;;;;5071028;28;20411;-78
2021/06/04 06:11:38;;;;;;;8.90;8.00;;;17.20;99.90;;;;;;5066331;28;20284;-78
2021/06/04 06:14:09;;;;;;;11.70;8.40;;;17.20;99.90;;;;;;5063186;28;20416;-79
2021/06/04 06:16:35;;;;;;;10.53;7.50;;;17.20;99.90;;;;;;5054926;28;20450;-78
2021/06/04 06:19:00;;;;;;;11.53;7.57;;;17.30;99.90;;;;;;5052599;28;20408;-78
2021/06/04 06:21:27;;;;;;;11.10;7.83;;;17.20;99.90;;;;;;5054339;28;20441;-79
2021/06/04 06:23:52;;;;;;;10.20;7.10;;;17.10;99.90;;;;;;5054819;28;20563;-80
2021/06/04 06:26:24;;;;;;;8.80;7.40;;;17.30;99.90;;;;;;5058214;28;20440;-79
2021/06/04 06:28:51;;;;;;;9.57;7.90;;;17.20;99.90;;;;;;5054491;28;20235;-81
2021/06/04 06:31:21;;;;;;;10.93;8.60;;;17.10;99.90;;;;;;5072728;28;20513;-81
2021/06/04 06:33:48;;;;;;;13.23;8.30;;;17.00;99.90;;;;;;5073191;28;20485;-80
2021/06/04 06:36:19;;;;;;;11.03;8.63;;;17.20;99.90;;;;;;5073640;28;20414;-80
2021/06/04 06:38:48;;;;;;;12.20;7.90;;;17.30;99.90;;;;;;5057741;28;20435;-80
2021/06/04 06:41:16;;;;;;;9.97;8.00;;;17.30;99.90;;;;;;5059030;28;20427;-80
2021/06/04 06:43:48;;;;;;;9.47;7.63;;;17.40;99.90;;;;;;5055836;28;20950;-80
2021/06/04 06:46:15;;;;;;;9.10;7.90;;;17.50;99.90;;;;;;5057115;28;20960;-80
2021/06/04 06:48:41;;;;;;;9.90;7.50;;;17.40;99.90;;;;;;5062784;28;20926;-80
2021/06/04 06:51:09;;;;;;;9.73;8.43;;;17.40;99.90;;;;;;5064738;28;20437;-80
2021/06/04 06:53:38;;;;;;;8.47;7.67;;;17.50;99.90;;;;;;5074876;28;20196;-79
2021/06/04 06:56:05;;;;;;;9.70;7.80;;;17.50;99.90;;;;;;5069752;28;20460;-80
2021/06/04 06:58:32;;;;;;;9.77;7.97;;;17.60;99.90;;;;;;5055316;28;20410;-80
2021/06/04 07:00:58;;;;;;;10.57;8.50;;;17.50;99.90;;;;;;5054461;28;20439;-80
2021/06/04 07:03:27;;;;;;;8.67;7.70;;;17.50;99.90;;;;;;5062359;28;20613;-81
2021/06/04 07:05:54;;;;;;;11.97;8.63;;;17.30;99.90;;;;;;5055104;28;20167;-80
2021/06/04 07:08:21;;;;;;;10.60;7.83;;;17.60;99.90;;;;;;5053524;28;20425;-80
2021/06/04 07:10:49;;;;;;;13.03;9.00;;;17.50;99.90;;;;;;5053884;28;20523;-79
2021/06/04 07:13:24;;;;;;;11.23;8.73;;;17.50;99.90;;;;;;5054238;28;20489;-80
2021/06/04 07:15:49;;;;;;;11.60;9.60;;;17.50;99.90;;;;;;5054504;28;20938;-79
2021/06/04 07:18:15;;;;;;;11.57;8.40;;;17.40;99.90;;;;;;5053982;28;20527;-79
2021/06/04 07:20:40;;;;;;;8.67;7.70;;;17.50;99.90;;;;;;5052768;28;20239;-78
2021/06/04 07:23:09;;;;;;;13.60;8.17;;;17.40;99.90;;;;;;5054231;28;20231;-80
2021/06/04 07:25:38;;;;;;;11.50;8.47;;;17.60;99.90;;;;;;5056798;28;20248;-80
2021/06/04 07:28:04;;;;;;;10.50;7.60;;;17.70;99.90;;;;;;5068346;28;20416;-80
2021/06/04 07:30:37;;;;;;;8.40;7.47;;;17.90;99.90;;;;;;5066056;28;20496;-80
2021/06/04 07:33:06;;;;;;;12.67;8.20;;;18.10;99.90;;;;;;5062467;28;20540;-79
2021/06/04 07:35:33;;;;;;;8.47;7.37;;;18.10;99.90;;;;;;5076578;28;20988;-78
2021/06/04 07:37:59;;;;;;;10.27;7.67;;;18.00;99.90;;;;;;5072329;28;20438;-80
2021/06/04 07:40:29;;;;;;;9.87;8.87;;;18.00;99.90;;;;;;5085849;28;20484;-79
2021/06/04 07:42:56;;;;;;;9.83;7.97;;;18.00;99.90;;;;;;5070908;28;20217;-79
2021/06/04 07:45:24;;;;;;;8.97;7.90;;;18.10;99.90;;;;;;5064201;28;20438;-79
2021/06/04 07:47:49;;;;;;;10.13;7.80;;;18.10;99.90;;;;;;5077789;28;20451;-79
2021/06/04 07:50:16;;;;;;;10.00;8.20;;;18.20;99.90;;;;;;5069127;28;20453;-80
2021/06/04 07:52:41;;;;;;;9.40;7.83;;;18.00;99.90;;;;;;5070721;28;20272;-79
2021/06/04 07:55:10;;;;;;;9.80;8.37;;;18.10;99.90;;;;;;5069560;28;20899;-79
2021/06/04 07:57:36;;;;;;;9.70;8.10;;;18.20;99.90;;;;;;5073106;28;20273;-80
2021/06/04 08:00:06;;;;;;;10.90;7.70;;;18.10;99.90;;;;;;5065269;28;20505;-79
2021/06/04 08:02:33;;;;;;;12.83;8.23;;;18.20;99.90;;;;;;5055317;28;20201;-81
2021/06/04 08:04:58;;;;;;;8.30;7.47;;;18.30;99.90;;;;;;5063620;28;20467;-80
2021/06/04 08:07:24;;;;;;;8.20;7.40;;;18.40;99.90;;;;;;5070102;28;20507;-80
2021/06/04 08:09:49;;;;;;;9.27;8.27;;;18.40;99.90;;;;;;5063576;28;20191;-82
2021/06/04 08:12:16;;;;;;;12.50;7.50;;;18.30;99.90;;;;;;5075405;28;20199;-80
2021/06/04 08:14:42;;;;;;;10.30;7.53;;;18.40;99.90;;;;;;5071964;28;20191;-81
2021/06/04 08:17:08;;;;;;;11.73;8.53;;;18.40;99.90;;;;;;5073805;28;20434;-80
2021/06/04 08:19:36;;;;;;;10.13;8.13;;;18.50;99.90;;;;;;5059960;28;20913;-80
2021/06/04 08:22:12;;;;;;;9.83;8.50;;;18.50;99.90;;;;;;5054111;28;20441;-80
2021/06/04 08:24:37;;;;;;;12.00;8.03;;;18.50;99.90;;;;;;5055605;28;20461;-79
2021/06/04 08:27:05;;;;;;;10.80;7.57;;;18.60;99.90;;;;;;5055724;28;20422;-80
2021/06/04 08:29:32;;;;;;;9.87;7.73;;;18.70;99.90;;;;;;5056379;28;20259;-80
2021/06/04 08:31:58;;;;;;;18.00;8.43;;;18.70;99.90;;;;;;5056359;28;20438;-81
2021/06/04 08:34:26;;;;;;;13.77;9.20;;;18.70;99.90;;;;;;5058262;28;20433;-80
2021/06/04 08:36:52;;;;;;;9.50;7.77;;;18.70;99.90;;;;;;5060259;28;20423;-77
2021/06/04 08:39:22;;;;;;;12.77;7.97;;;18.80;99.90;;;;;;5059339;28;21002;-80
2021/06/04 08:42:17;;;;;;;10.90;8.13;;;18.90;99.90;;;;;;5056456;28;20926;-82
2021/06/04 08:44:56;;;;;;;9.70;8.40;;;18.90;99.90;;;;;;5056246;28;20459;-79
2021/06/04 08:47:25;;;;;;;11.60;8.63;;;18.90;99.90;;;;;;5057385;28;20928;-80
2021/06/04 08:50:06;;;;;;;9.00;7.17;;;18.90;99.90;;;;;;5039703;28;20898;-81
2021/06/04 08:52:41;;;;;;;11.30;7.67;;;19.00;99.90;;;;;;5056330;28;20513;-81
2021/06/04 08:55:13;;;;;;;12.57;7.40;;;19.10;99.90;;;;;;5058560;28;20409;-81
2021/06/04 08:58:07;;;;;;;10.97;7.83;;;19.20;99.90;;;;;;5061052;28;20415;-82
2021/06/04 09:00:39;;;;;;;9.50;7.33;;;19.10;99.90;;;;;;5050066;28;20453;-81
2021/06/04 09:03:30;;;;;;;8.43;6.80;;;19.10;99.90;;;;;;5060789;28;20482;-82
2021/06/04 09:06:02;;;;;;;9.50;8.10;;;19.20;99.90;;;;;;5023657;28;20941;-82
2021/06/04 09:08:33;;;;;;;9.93;6.87;;;19.10;99.90;;;;;;5057316;28;20411;-80
2021/06/04 09:11:04;;;;;;;9.60;7.93;;;19.10;99.90;;;;;;5055856;28;20442;-80
2021/06/04 09:13:36;;;;;;;13.30;8.90;;;19.00;99.90;;;;;;5057638;28;20438;-80
2021/06/04 09:16:12;;;;;;;10.83;7.97;;;19.00;99.90;;;;;;5058270;28;20419;-80
2021/06/04 09:18:57;;;;;;;11.73;9.07;;;18.90;99.90;;;;;;5057190;28;20472;-81
2021/06/04 09:21:28;;;;;;;11.30;8.77;;;18.90;99.90;;;;;;5057326;28;20471;-81
2021/06/04 09:23:59;;;;;;;10.10;7.80;;;18.90;99.90;;;;;;5058246;28;20455;-80
2021/06/04 09:26:27;;;;;;;10.77;8.37;;;19.00;99.90;;;;;;5056654;28;20425;-79
2021/06/04 09:29:02;;;;;;;9.00;8.00;;;19.00;99.90;;;;;;5056338;28;20482;-80
2021/06/04 09:31:51;;;;;;;9.70;8.47;;;19.00;99.90;;;;;;5056914;28;20927;-80
2021/06/04 09:34:24;;;;;;;11.90;8.23;;;19.00;99.90;;;;;;5057827;28;20418;-80
2021/06/04 09:37:05;;;;;;;11.80;8.27;;;19.00;99.90;;;;;;5056340;28;20426;-81
2021/06/04 09:39:50;;;;;;;9.80;8.47;;;19.00;99.90;;;;;;5056797;28;20426;-80
2021/06/04 09:42:26;;;;;;;15.43;7.97;;;19.00;99.90;;;;;;5056336;28;20443;-80
2021/06/04 09:44:59;;;;;;;9.70;8.37;;;19.00;99.90;;;;;;5057341;28;20446;-80
2021/06/04 09:47:24;;;;;;;9.67;8.33;;;19.20;99.90;;;;;;5056746;28;20419;-80
2021/06/04 09:49:51;;;;;;;10.27;8.00;;;18.80;99.90;;;;;;5056968;28;20415;-80
2021/06/04 09:52:36;;;;;;;17.60;8.67;;;18.70;99.90;;;;;;5057277;28;20183;-80
2021/06/04 09:55:04;;;;;;;13.37;9.30;;;18.80;99.90;;;;;;5055370;28;20415;-80
2021/06/04 09:57:30;;;;;;;12.10;7.87;;;18.90;99.90;;;;;;5057380;28;20909;-79
2021/06/04 10:00:14;;;;;;;14.33;8.47;;;19.10;99.90;;;;;;5056304;28;20422;-79
2021/06/04 10:02:39;;;;;;;9.57;7.93;;;19.10;99.90;;;;;;5058097;28;20200;-79
2021/06/04 10:05:30;;;;;;;11.60;8.20;;;19.20;99.90;;;;;;5058446;28;20477;-79
2021/06/04 10:08:01;;;;;;;10.90;8.37;;;19.30;99.90;;;;;;5048641;28;20411;-79
2021/06/04 10:10:36;;;;;;;8.23;7.30;;;19.40;99.90;;;;;;5058093;28;20423;-79
2021/06/04 10:13:05;;;;;;;7.70;6.90;;;19.50;99.90;;;;;;5057773;28;20431;-79
2021/06/04 10:15:45;;;;;;;11.40;7.20;;;19.60;99.90;;;;;;5057056;28;20415;-79
2021/06/04 10:18:37;;;;;;;10.50;8.20;;;19.40;99.90;;;;;;5056035;28;20406;-79
2021/06/04 10:21:15;;;;;;;9.30;7.93;;;19.50;99.90;;;;;;5059288;28;20917;-79
2021/06/04 10:23:46;;;;;;;11.03;7.47;;;19.60;99.90;;;;;;5061805;28;20454;-81
2021/06/04 10:26:34;;;;;;;11.30;7.77;;;19.60;99.90;;;;;;5079397;28;20464;-81
2021/06/04 10:29:03;;;;;;;12.83;6.70;;;19.70;99.90;;;;;;5064781;28;20430;-81
2021/06/04 10:31:52;;;;;;;13.10;7.27;;;19.80;99.90;;;;;;5099945;28;20414;-82
2021/06/04 10:34:46;;;;;;;11.33;7.57;;;19.80;99.90;;;;;;5089534;28;20422;-82
2021/06/04 10:37:48;;;;;;;10.13;7.27;;;19.50;99.90;;;;;;5079647;28;20406;-83
2021/06/04 10:40:19;;;;;;;12.27;8.30;;;19.70;99.90;;;;;;5074200;28;20438;-83
2021/06/04 10:42:50;;;;;;;12.23;7.23;;;19.90;99.90;;;;;;5085833;28;20609;-82
2021/06/04 10:45:33;;;;;;;14.90;8.30;;;19.90;99.90;;;;;;5078603;28;20417;-82
2021/06/04 10:48:27;;;;;;;11.83;7.87;;;19.70;99.90;;;;;;5064105;28;20422;-82
2021/06/04 10:51:11;;;;;;;7.57;6.30;;;19.90;99.90;;;;;;5060374;28;20968;-82
2021/06/04 10:53:55;;;;;;;7.10;6.40;;;20.10;99.90;;;;;;5057100;28;20960;-82
2021/06/04 10:56:34;;;;;;;8.87;6.37;;;20.40;99.90;;;;;;5057821;28;20404;-82
2021/06/04 10:59:32;;;;;;;9.17;6.73;;;20.50;99.90;;;;;;5056719;28;20403;-82
2021/06/04 11:02:04;;;;;;;8.10;6.70;;;20.30;99.90;;;;;;5058979;28;20429;-82
2021/06/04 11:05:02;;;;;;;8.30;7.10;;;20.40;99.90;;;;;;5059345;28;20474;-82
2021/06/04 11:07:38;;;;;;;8.63;5.80;;;20.60;99.90;;;;;;5049837;28;20420;-82
2021/06/04 11:10:23;;;;;;;8.17;6.47;;;20.60;99.90;;;;;;5059478;28;20424;-82
2021/06/04 11:13:00;;;;;;;8.00;6.57;;;20.70;99.90;;;;;;5057530;28;20440;-83
2021/06/04 11:15:48;;;;;;;7.20;6.37;;;20.90;99.90;;;;;;5057702;28;20467;-82
2021/06/04 11:18:20;;;;;;;12.57;6.77;;;21.10;99.90;;;;;;5058078;28;20453;-82
2021/06/04 11:20:55;;;;;;;10.40;6.27;;;21.40;99.90;;;;;;5060060;28;20410;-82
2021/06/04 11:23:47;;;;;;;7.90;5.60;;;21.40;99.90;;;;;;5042943;28;20468;-81
2021/06/04 11:26:36;;;;;;;7.50;5.10;;;21.60;99.90;;;;;;5057802;28;20430;-83
2021/06/04 11:29:10;;;;;;;7.87;5.90;;;21.70;99.90;;;;;;5053063;28;20419;-82
2021/06/04 11:32:11;;;;;;;8.70;6.17;;;21.70;99.90;;;;;;5059991;28;20423;-82
2021/06/04 11:34:43;;;;;;;6.83;6.13;;;22.10;99.90;;;;;;5056949;28;20410;-80
2021/06/04 11:37:41;;;;;;;6.83;5.90;;;22.30;99.90;;;;;;5059064;28;20443;-82
2021/06/04 11:40:21;;;;;;;7.03;6.13;;;22.50;99.90;;;;;;5073484;28;20410;-82
2021/06/04 11:42:53;;;;;;;15.37;10.90;;;22.40;99.90;;;;;;5063422;28;20482;-78
2021/06/04 11:45:22;;;;;;;9.07;6.37;;;22.30;99.90;;;;;;5059168;28;20454;-78
2021/06/04 11:47:48;;;;;;;9.97;7.80;;;22.30;99.90;;;;;;5059562;28;20934;-78
2021/06/04 11:50:23;;;;;;;6.90;5.87;;;22.30;99.90;;;;;;5074542;28;20480;-79
2021/06/04 11:52:52;;;;;;;8.63;7.67;;;22.40;99.90;;;;;;5070065;28;20454;-79
2021/06/04 11:55:35;;;;;;;7.60;6.53;;;22.50;99.90;;;;;;5061638;28;20424;-80
2021/06/04 11:58:27;;;;;;;9.57;7.80;;;22.50;99.90;;;;;;5071786;28;21060;-80
2021/06/04 12:01:10;;;;;;;10.90;7.33;;;22.50;99.90;;;;;;5062256;28;20462;-81
2021/06/04 12:03:37;;;;;;;11.63;7.20;;;22.50;99.90;;;;;;5089068;28;20455;-78
2021/06/04 12:06:28;;;;;;;9.97;7.43;;;22.60;99.90;;;;;;5050466;28;20454;-79
2021/06/04 12:08:56;;;;;;;7.73;7.03;;;22.50;99.90;;;;;;5061523;28;20427;-79
2021/06/04 12:11:21;;;;;;;10.80;7.20;;;22.50;99.90;;;;;;5047323;28;20848;-81
2021/06/04 12:13:51;;;;;;;8.00;7.20;;;22.50;99.90;;;;;;5062069;28;20433;-82
2021/06/04 12:16:26;;;;;;;8.57;7.00;;;22.50;99.90;;;;;;5067888;28;20183;-80
2021/06/04 12:19:02;;;;;;;9.67;6.97;;;22.60;99.90;;;;;;5062682;28;20438;-81
2021/06/04 12:21:41;;;;;;;11.13;6.83;;;22.60;99.90;;;;;;5067735;28;20885;-79
2021/06/04 12:24:26;;;;;;;10.13;7.47;;;22.40;99.90;;;;;;5073350;28;20442;-81
2021/06/04 12:27:12;;;;;;;9.67;7.07;;;22.20;99.90;;;;;;5079175;28;20461;-80
2021/06/04 12:29:51;;;;;;;8.23;7.40;;;22.20;99.90;;;;;;5064281;28;20461;-82
2021/06/04 12:32:36;;;;;;;11.43;7.50;;;22.00;99.90;;;;;;5078182;28;20438;-83
2021/06/04 12:35:04;;;;;;;8.83;6.83;;;22.20;99.90;;;;;;5070712;28;20439;-83
2021/06/04 12:37:37;;;;;;;8.17;7.00;;;22.40;99.90;;;;;;5063824;28;20448;-82
2021/06/04 12:40:24;;;;;;;8.70;7.63;;;22.60;99.90;;;;;;5084165;28;20431;-84
2021/06/04 12:43:03;;;;;;;8.77;7.50;;;22.70;99.90;;;;;;5074647;28;20423;-84
2021/06/04 12:45:34;;;;;;;10.20;7.60;;;22.60;99.90;;;;;;5084334;28;20434;-84
2021/06/04 12:48:05;;;;;;;7.93;7.00;;;22.50;99.90;;;;;;5071982;28;20803;-84
2021/06/04 12:50:43;;;;;;;9.30;7.57;;;22.80;99.90;;;;;;5088356;28;20433;-84
2021/06/04 12:53:09;;;;;;;8.90;7.10;;;22.80;99.90;;;;;;5087209;28;20518;-84
2021/06/04 12:55:36;;;;;;;10.30;7.17;;;22.70;99.90;;;;;;5085001;28;20434;-82
2021/06/04 12:58:34;;;;;;;8.57;7.23;;;22.40;99.90;;;;;;5088814;28;20171;-84
2021/06/04 13:01:10;;;;;;;8.60;6.93;;;22.50;99.90;;;;;;5072306;28;20456;-84
2021/06/04 13:03:50;;;;;;;7.93;6.57;;;22.50;99.90;;;;;;5068882;28;20978;-83
2021/06/04 13:06:24;;;;;;;9.40;7.63;;;22.50;99.90;;;;;;5068154;28;20422;-83
2021/06/04 13:08:53;;;;;;;10.20;6.70;;;22.40;99.90;;;;;;5088007;28;20425;-85
2021/06/04 13:11:39;;;;;;;8.90;6.80;;;22.50;99.90;;;;;;5068154;28;20446;-84